Time;durP1;ratioP1;P1;durP2;ratioP2;P2;SDS_P1;SDS_P2;PMS_P1;PMS_P2;Temp;Humidity;BMP_temperature;BMP_pressure;BME280_temperature;BME280_humidity;BME280_pressure;Samples;Min_cycle;Max_cycle;Signal;HPM_P1;HPM_P2
2022/01/02 00:02:10;;;;;;;;;1.50;0.50;;;;;11.98;66.32;101647.66;5043459;28;45477;-86
2022/01/02 00:04:41;;;;;;;;;0.50;0.50;;;;;11.70;66.23;101603.66;5043802;28;45496;-86
2022/01/02 00:07:09;;;;;;;;;1.25;1.25;;;;;11.33;65.81;101540.44;5041521;28;45551;-85
2022/01/02 00:09:36;;;;;;;;;1.00;1.00;;;;;11.37;65.65;101539.66;5042011;28;46488;-86
2022/01/02 00:12:06;;;;;;;;;2.00;1.25;;;;;11.84;66.19;101608.25;5043318;28;45416;-86
2022/01/02 00:14:37;;;;;;;;;0.25;0.25;;;;;11.07;66.14;101486.09;5042884;28;45578;-85
2022/01/02 00:17:05;;;;;;;;;0.50;0.50;;;;;11.46;65.90;101562.41;5042554;28;45546;-85
2022/01/02 00:19:45;;;;;;;;;1.00;0.25;;;;;11.31;66.04;101555.16;5044743;28;45499;-85
2022/01/02 00:22:15;;;;;;;;;1.75;0.50;;;;;11.94;66.25;101636.25;5021449;28;45617;-85
2022/01/02 00:24:45;;;;;;;;;0.50;0.50;;;;;11.64;66.17;101585.31;5022819;28;45371;-85
2022/01/02 00:27:13;;;;;;;;;1.75;0.50;;;;;11.58;65.77;101575.63;5024142;28;45379;-85
2022/01/02 00:29:41;;;;;;;;;0.00;0.00;;;;;11.27;66.05;101507.31;5022711;28;45292;-85
2022/01/02 00:32:08;;;;;;;;;2.50;2.50;;;;;11.76;66.01;101584.66;5034434;28;45453;-85
2022/01/02 00:34:38;;;;;;;;;0.00;0.00;;;;;11.65;65.83;101563.59;5057443;28;45426;-85
2022/01/02 00:37:05;;;;;;;;;2.75;2.00;;;;;11.79;65.94;101584.69;5042637;28;45348;-85
2022/01/02 00:39:30;;;;;;;;;0.50;0.50;;;;;11.99;65.98;101621.59;5042154;28;46367;-86
2022/01/02 00:42:29;;;;;;;;;3.50;0.50;;;;;12.04;65.76;101629.50;5042413;28;45359;-86
2022/01/02 00:45:02;;;;;;;;;0.75;0.75;;;;;11.84;65.90;101603.03;5034025;28;45445;-85
2022/01/02 00:47:36;;;;;;;;;0.75;0.75;;;;;11.94;65.91;101625.81;5042538;28;45424;-85
2022/01/02 00:50:05;;;;;;;;;0.50;0.50;;;;;11.99;65.70;101628.53;5037799;28;45977;-84
2022/01/02 00:52:35;;;;;;;;;2.00;1.50;;;;;11.82;65.86;101595.19;5022196;28;45417;-85
2022/01/02 00:55:04;;;;;;;;;0.00;0.00;;;;;11.07;65.81;101486.97;5023274;28;45367;-85
2022/01/02 00:57:35;;;;;;;;;1.25;1.25;;;;;11.98;65.79;101639.81;5021403;28;45443;-85
2022/01/02 01:00:11;;;;;;;;;2.25;0.75;;;;;11.97;65.90;101630.25;5032789;28;47072;-82
2022/01/02 01:02:48;;;;;;;;;1.25;0.50;;;;;12.00;66.33;101640.69;5024914;28;45507;-85
2022/01/02 01:05:33;;;;;;;;;3.00;0.75;;;;;11.48;66.03;101524.19;5022443;28;45481;-83
2022/01/02 01:08:01;;;;;;;;;0.75;0.25;;;;;11.82;66.14;101569.09;5022585;28;45410;-85
2022/01/02 01:10:29;;;;;;;;;0.00;0.00;;;;;11.44;66.04;101501.50;5024141;28;45458;-85
2022/01/02 01:12:58;;;;;;;;;0.50;0.50;;;;;11.60;66.15;101524.41;5021831;28;45542;-83
2022/01/02 01:15:28;;;;;;;;;0.50;0.50;;;;;11.28;65.81;101478.66;5020825;28;45450;-86
2022/01/02 01:17:55;;;;;;;;;1.25;1.25;;;;;11.34;66.00;101497.88;5023296;28;45348;-84
2022/01/02 01:20:22;;;;;;;;;0.50;0.25;;;;;11.90;66.00;101583.16;5031304;28;45395;-84
2022/01/02 01:22:48;;;;;;;;;4.00;0.50;;;;;11.13;66.34;101441.91;5042865;28;45451;-84
2022/01/02 01:25:17;;;;;;;;;1.00;1.00;;;;;11.88;66.43;101555.28;5041767;28;45434;-85
2022/01/02 01:27:47;;;;;;;;;0.00;0.00;;;;;11.41;65.90;101489.31;5044149;28;45415;-84
2022/01/02 01:30:15;;;;;;;;;0.50;0.50;;;;;11.91;65.92;101565.75;5045679;28;46665;-84
2022/01/02 01:32:40;;;;;;;;;0.50;0.50;;;;;11.55;65.98;101518.25;5055896;28;45504;-86
2022/01/02 01:35:07;;;;;;;;;0.25;0.25;;;;;11.76;66.11;101564.66;5063951;28;45351;-85
2022/01/02 01:37:32;;;;;;;;;0.00;0.00;;;;;11.52;66.08;101507.75;5064386;28;45414;-87
2022/01/02 01:39:58;;;;;;;;;2.25;0.25;;;;;11.72;66.13;101528.94;5035401;28;45514;-86
2022/01/02 01:42:36;;;;;;;;;0.00;0.00;;;;;11.49;65.95;101495.53;5022254;28;45521;-84
2022/01/02 01:47:46;;;;;;;;;1.75;0.50;;;;;11.30;65.92;101481.28;5023048;28;45391;-86
2022/01/02 01:50:12;;;;;;;;;0.00;0.00;;;;;11.81;65.95;101566.47;5021274;28;48126;-86
2022/01/02 01:52:38;;;;;;;;;1.75;0.00;;;;;11.20;66.13;101463.72;5020714;28;45494;-86
2022/01/02 01:55:04;;;;;;;;;2.00;0.50;;;;;11.59;66.01;101514.84;5023405;28;45317;-87
2022/01/02 01:57:31;;;;;;;;;0.00;0.00;;;;;11.59;66.32;101509.63;5022249;28;45471;-87
2022/01/02 01:59:56;;;;;;;;;1.00;0.00;;;;;11.68;66.28;101526.25;5020753;28;47514;-87
2022/01/02 02:02:22;;;;;;;;;0.00;0.00;;;;;11.72;66.43;101533.28;5036950;28;45363;-87
2022/01/02 02:04:48;;;;;;;;;0.50;0.00;;;;;10.90;66.25;101392.88;5021784;28;45389;-86
2022/01/02 02:07:14;;;;;;;;;2.00;0.75;;;;;11.17;66.51;101442.81;5022016;28;45297;-84
2022/01/02 02:09:59;;;;;;;;;2.50;0.25;;;;;10.63;66.47;101358.53;5036448;28;46397;-86
2022/01/02 02:12:25;;;;;;;;;1.25;0.25;;;;;10.75;66.40;101370.06;5041398;28;45296;-87
2022/01/02 02:14:51;;;;;;;;;1.00;1.00;;;;;11.71;66.68;101532.41;5042668;28;44806;-83
2022/01/02 02:17:16;;;;;;;;;0.50;0.50;;;;;11.54;66.55;101498.22;5059225;28;44880;-85
2022/01/02 02:19:42;;;;;;;;;1.50;1.00;;;;;11.17;66.44;101430.69;5041199;28;45488;-85
2022/01/02 02:22:08;;;;;;;;;0.50;0.50;;;;;11.68;66.40;101508.00;5056655;28;45383;-85
2022/01/02 02:24:33;;;;;;;;;0.75;0.75;;;;;11.72;66.28;101508.06;5025701;28;45515;-83
2022/01/02 02:26:59;;;;;;;;;1.25;0.25;;;;;11.48;66.12;101465.09;5023835;28;45465;-85
2022/01/02 02:29:24;;;;;;;;;0.00;0.00;;;;;11.16;66.65;101400.28;5024512;28;46540;-84
2022/01/02 02:31:55;;;;;;;;;4.25;0.25;;;;;11.17;66.55;101401.13;5032892;28;45478;-86
2022/01/02 02:34:20;;;;;;;;;0.00;0.00;;;;;11.26;66.56;101411.72;5065177;28;45405;-85
2022/01/02 02:36:45;;;;;;;;;0.50;0.50;;;;;11.71;66.52;101481.97;5048598;28;45487;-83
2022/01/02 02:39:11;;;;;;;;;0.00;0.00;;;;;10.89;66.33;101352.94;5042863;28;45796;-85
2022/01/02 02:41:38;;;;;;;;;0.25;0.25;;;;;11.68;66.45;101469.75;5044995;28;45394;-85
2022/01/02 02:44:10;;;;;;;;;0.50;0.50;;;;;11.16;66.40;101382.03;5047671;28;45461;-85
2022/01/02 02:49:19;;;;;;;;;0.00;0.00;;;;;10.94;66.36;101320.88;5044032;28;45900;-85
2022/01/02 02:51:55;;;;;;;;;0.75;0.50;;;;;11.17;66.31;101344.69;5027287;28;45397;-85
2022/01/02 02:54:25;;;;;;;;;0.00;0.00;;;;;10.99;65.96;101311.38;5056192;28;45420;-86
2022/01/02 02:56:56;;;;;;;;;0.50;0.50;;;;;11.19;65.90;101353.44;5024453;28;45479;-86
2022/01/02 02:59:40;;;;;;;;;0.00;0.00;;;;;11.14;66.22;101321.19;5055890;28;45823;-86
2022/01/02 03:02:05;;;;;;;;;1.00;1.00;;;;;11.40;66.08;101376.31;5024331;28;45248;-84
2022/01/02 03:04:31;;;;;;;;;0.00;0.00;;;;;11.79;65.82;101438.59;5024610;28;45380;-85
2022/01/02 03:06:56;;;;;;;;;0.00;0.00;;;;;11.12;66.16;101320.31;5038180;28;45521;-85
2022/01/02 03:09:46;;;;;;;;;0.00;0.00;;;;;11.39;66.01;101377.19;5042022;28;47984;-85
2022/01/02 03:12:11;;;;;;;;;1.50;0.00;;;;;11.62;66.28;101407.97;5042969;28;45388;-84
2022/01/02 03:14:36;;;;;;;;;0.25;0.25;;;;;11.79;66.04;101442.09;5042967;28;45399;-85
2022/01/02 03:17:03;;;;;;;;;0.50;0.50;;;;;11.83;65.92;101440.44;5043275;28;45416;-85
2022/01/02 03:19:29;;;;;;;;;0.00;0.00;;;;;11.45;65.91;101357.28;5042962;28;46331;-84
2022/01/02 03:21:57;;;;;;;;;0.00;0.00;;;;;11.78;65.77;101422.09;5027079;28;45426;-84
2022/01/02 03:24:22;;;;;;;;;0.00;0.00;;;;;11.27;66.06;101333.56;5022582;28;45368;-84
2022/01/02 03:26:48;;;;;;;;;1.00;1.00;;;;;11.18;65.48;101325.59;5022916;28;45485;-84
2022/01/02 03:29:13;;;;;;;;;0.25;0.25;;;;;11.24;65.76;101341.31;5054587;28;47385;-84
2022/01/02 03:31:38;;;;;;;;;1.00;0.00;;;;;11.60;65.60;101395.72;5059079;28;45445;-83
2022/01/02 03:34:05;;;;;;;;;1.50;0.00;;;;;11.97;65.76;101461.50;5073278;28;45428;-84
2022/01/02 03:36:30;;;;;;;;;0.00;0.00;;;;;11.78;65.78;101435.16;5064899;28;45543;-84
2022/01/02 03:38:55;;;;;;;;;0.00;0.00;;;;;11.42;65.41;101358.09;5062109;28;45597;-84
2022/01/02 03:41:21;;;;;;;;;0.00;0.00;;;;;11.64;65.32;101390.59;5064067;28;45482;-84
2022/01/02 03:43:46;;;;;;;;;0.25;0.25;;;;;11.99;65.48;101454.56;5048311;28;45816;-84
2022/01/02 03:46:12;;;;;;;;;1.00;0.00;;;;;11.50;65.44;101368.66;5043736;28;45545;-85
2022/01/02 03:48:37;;;;;;;;;0.00;0.00;;;;;11.86;65.22;101429.16;5043115;28;45404;-84
2022/01/02 03:51:03;;;;;;;;;0.50;0.00;;;;;12.06;65.19;101441.63;5046536;28;45395;-84
2022/01/02 03:53:28;;;;;;;;;0.75;0.00;;;;;11.43;64.90;101325.09;5043810;28;45292;-85
2022/01/02 03:55:54;;;;;;;;;0.00;0.00;;;;;12.18;65.14;101440.91;5042898;28;45441;-85
2022/01/02 03:58:19;;;;;;;;;0.00;0.00;;;;;11.82;65.15;101363.00;5029844;28;45548;-84
2022/01/02 04:00:45;;;;;;;;;0.75;0.75;;;;;12.23;64.76;101416.66;5023205;28;45379;-84
2022/01/02 04:03:11;;;;;;;;;0.75;0.75;;;;;12.16;64.85;101404.38;5023220;28;45391;-84
2022/01/02 04:05:37;;;;;;;;;0.00;0.00;;;;;11.97;64.83;101382.34;5023542;28;45495;-84
2022/01/02 04:08:04;;;;;;;;;0.00;0.00;;;;;11.83;64.70;101356.97;5023019;28;45473;-84
2022/01/02 04:10:29;;;;;;;;;0.50;0.00;;;;;11.42;64.64;101279.88;5022513;28;45537;-84
2022/01/02 04:12:55;;;;;;;;;1.75;0.25;;;;;11.97;64.71;101390.19;5022908;28;45489;-83
2022/01/02 04:15:20;;;;;;;;;0.75;0.75;;;;;11.82;64.80;101346.50;5023256;28;45436;-84
2022/01/02 04:17:46;;;;;;;;;0.00;0.00;;;;;12.00;64.72;101400.63;5022757;28;45447;-83
2022/01/02 04:20:14;;;;;;;;;0.00;0.00;;;;;11.82;64.46;101367.38;5022790;28;45447;-84
2022/01/02 04:22:40;;;;;;;;;0.00;0.00;;;;;11.55;64.79;101304.44;5037919;28;45301;-84
2022/01/02 04:25:06;;;;;;;;;0.00;0.00;;;;;12.09;64.80;101379.91;5021267;28;45413;-84
2022/01/02 04:27:32;;;;;;;;;0.00;0.00;;;;;11.44;64.48;101279.91;5032873;28;45498;-85
2022/01/02 04:29:57;;;;;;;;;1.00;0.75;;;;;12.11;64.55;101401.72;5043065;28;45470;-84
2022/01/02 04:32:22;;;;;;;;;1.25;0.00;;;;;11.52;64.90;101310.44;5052074;28;45473;-84
2022/01/02 04:34:48;;;;;;;;;2.00;0.00;;;;;12.00;64.63;101379.75;5061414;28;45476;-84
2022/01/02 04:37:14;;;;;;;;;0.00;0.00;;;;;11.63;64.31;101297.56;5065543;28;46456;-83
2022/01/02 04:39:40;;;;;;;;;0.75;0.00;;;;;12.20;64.64;101368.75;5063069;28;45453;-84
2022/01/02 04:42:07;;;;;;;;;0.00;0.00;;;;;11.30;64.00;101217.19;5053513;28;45373;-85
2022/01/02 04:44:33;;;;;;;;;0.00;0.00;;;;;11.89;63.97;101299.63;5029405;28;45363;-84
2022/01/02 04:46:58;;;;;;;;;0.00;0.00;;;;;12.00;64.00;101320.63;5037995;28;46156;-83
2022/01/02 04:49:24;;;;;;;;;0.25;0.00;;;;;12.00;64.16;101344.13;5028437;28;45286;-83
2022/01/02 04:51:51;;;;;;;;;0.50;0.50;;;;;11.33;63.95;101231.13;5022989;28;45549;-84
2022/01/02 04:54:16;;;;;;;;;0.00;0.00;;;;;11.72;63.81;101278.56;5022336;28;45446;-84
2022/01/02 04:56:42;;;;;;;;;0.00;0.00;;;;;12.25;63.81;101349.66;5025202;28;45940;-84
2022/01/02 04:59:07;;;;;;;;;0.50;0.25;;;;;11.73;63.82;101266.41;5042202;28;45616;-84
2022/01/02 05:01:33;;;;;;;;;0.50;0.50;;;;;11.86;63.92;101275.25;5042219;28;45395;-84
2022/01/02 05:03:58;;;;;;;;;0.00;0.00;;;;;12.20;63.82;101322.66;5042340;28;45402;-84
2022/01/02 05:06:23;;;;;;;;;0.00;0.00;;;;;11.70;63.85;101245.50;5041982;28;45497;-84
2022/01/02 05:08:49;;;;;;;;;0.00;0.00;;;;;11.67;64.18;101222.84;5042415;28;45459;-84
2022/01/02 05:11:15;;;;;;;;;0.00;0.00;;;;;11.64;63.75;101235.88;5041771;28;45488;-84
2022/01/02 05:13:40;;;;;;;;;0.00;0.00;;;;;12.15;64.12;101335.63;5042398;28;45449;-85
2022/01/02 05:16:07;;;;;;;;;0.00;0.00;;;;;11.99;63.76;101279.75;5043504;28;45466;-85
2022/01/02 05:18:33;;;;;;;;;1.00;0.00;;;;;11.40;63.95;101221.66;5040856;28;45481;-85
2022/01/02 05:20:58;;;;;;;;;0.50;0.50;;;;;11.22;63.69;101186.69;5057596;28;45348;-86
2022/01/02 05:23:24;;;;;;;;;0.00;0.00;;;;;11.58;63.63;101256.66;5040853;28;45684;-85
2022/01/02 05:25:50;;;;;;;;;0.00;0.00;;;;;12.22;63.78;101354.84;5041815;28;46013;-84
2022/01/02 05:28:15;;;;;;;;;0.00;0.00;;;;;11.86;63.37;101270.91;5022002;28;45431;-85
2022/01/02 05:30:42;;;;;;;;;2.25;0.25;;;;;11.87;63.16;101256.13;5037500;28;45364;-85
2022/01/02 05:33:08;;;;;;;;;1.50;0.25;;;;;12.13;63.31;101290.34;5050904;28;45591;-85
2022/01/02 05:35:34;;;;;;;;;0.00;0.00;;;;;12.35;63.46;101316.72;5062677;28;45514;-85
2022/01/02 05:38:01;;;;;;;;;0.00;0.00;;;;;11.68;63.04;101222.00;5062916;28;45492;-86
2022/01/02 05:40:34;;;;;;;;;0.00;0.00;;;;;11.47;62.86;101170.47;5060298;28;45497;-84
2022/01/02 05:43:01;;;;;;;;;0.00;0.00;;;;;12.46;63.11;101334.22;5041476;28;45442;-85
2022/01/02 05:45:26;;;;;;;;;0.00;0.00;;;;;12.45;62.68;101332.47;5041340;28;45497;-84
2022/01/02 05:47:52;;;;;;;;;0.00;0.00;;;;;11.97;62.62;101218.84;5040094;28;45637;-85
2022/01/02 05:50:17;;;;;;;;;0.00;0.00;;;;;12.01;62.42;101238.03;5040201;28;45424;-85
2022/01/02 05:52:43;;;;;;;;;0.00;0.00;;;;;11.60;62.46;101189.72;5040442;28;45610;-85
2022/01/02 05:55:09;;;;;;;;;0.00;0.00;;;;;12.18;62.39;101264.31;5039580;28;47212;-85
2022/01/02 05:57:34;;;;;;;;;0.00;0.00;;;;;12.57;62.07;101313.44;5023539;28;45610;-85
2022/01/02 06:00:00;;;;;;;;;1.50;0.00;;;;;12.21;62.42;101274.78;5042670;28;45430;-85
2022/01/02 06:02:25;;;;;;;;;0.00;0.00;;;;;12.54;62.30;101319.50;5066418;28;44837;-84
2022/01/02 06:04:51;;;;;;;;;0.00;0.00;;;;;12.27;62.26;101273.97;5046460;28;46453;-85
2022/01/02 06:07:16;;;;;;;;;0.00;0.00;;;;;12.51;62.03;101312.53;5043323;28;45359;-85
2022/01/02 06:09:42;;;;;;;;;1.00;0.00;;;;;11.76;61.93;101170.78;5046269;28;45367;-85
2022/01/02 06:12:07;;;;;;;;;0.00;0.00;;;;;11.91;61.95;101214.44;5041931;28;45605;-85
2022/01/02 06:14:33;;;;;;;;;0.00;0.00;;;;;12.61;61.72;101328.25;5023514;28;47640;-84
2022/01/02 06:16:58;;;;;;;;;0.25;0.25;;;;;12.09;61.61;101231.16;5023613;28;45391;-85
2022/01/02 06:19:23;;;;;;;;;0.00;0.00;;;;;11.85;61.64;101176.97;5026233;28;45480;-84
2022/01/02 06:21:49;;;;;;;;;1.00;0.00;;;;;12.08;61.79;101202.44;5032727;28;45321;-84
2022/01/02 06:24:14;;;;;;;;;1.25;1.25;;;;;12.75;61.72;101321.44;5041105;28;45393;-85
2022/01/02 06:26:40;;;;;;;;;0.00;0.00;;;;;12.75;61.58;101311.00;5071687;28;44880;-86
2022/01/02 06:29:05;;;;;;;;;0.50;0.50;;;;;12.61;61.69;101295.19;5032889;28;45414;-85
2022/01/02 06:31:30;;;;;;;;;0.00;0.00;;;;;12.55;61.15;101297.75;5030845;28;45505;-84
2022/01/02 06:33:56;;;;;;;;;0.00;0.00;;;;;12.33;61.74;101257.50;5066383;28;47195;-85
2022/01/02 06:36:22;;;;;;;;;0.00;0.00;;;;;12.21;61.70;101250.41;5065300;28;45404;-85
2022/01/02 06:38:47;;;;;;;;;1.75;0.00;;;;;12.55;61.57;101316.03;5065302;28;45447;-83
2022/01/02 06:41:13;;;;;;;;;0.50;0.50;;;;;11.90;61.25;101217.03;5059636;28;45370;-84
2022/01/02 06:43:39;;;;;;;;;0.25;0.00;;;;;12.09;61.18;101264.22;5045601;28;45367;-85
2022/01/02 06:46:06;;;;;;;;;0.00;0.00;;;;;11.96;61.44;101252.72;5048948;28;45387;-83
2022/01/02 06:48:31;;;;;;;;;1.25;0.75;;;;;12.26;61.87;101307.06;5048895;28;45366;-84
2022/01/02 06:50:57;;;;;;;;;0.00;0.00;;;;;12.57;61.84;101343.03;5043112;28;45384;-84
2022/01/02 06:53:22;;;;;;;;;0.00;0.00;;;;;11.78;61.61;101222.97;5026304;28;45546;-82
2022/01/02 06:55:48;;;;;;;;;0.25;0.25;;;;;12.40;61.54;101332.41;5024667;28;45465;-82
2022/01/02 06:58:14;;;;;;;;;0.00;0.00;;;;;12.09;61.70;101288.59;5024009;28;45450;-82
2022/01/02 07:00:40;;;;;;;;;0.75;0.75;;;;;11.81;61.78;101253.44;5025538;28;45421;-83
2022/01/02 07:03:06;;;;;;;;;0.00;0.00;;;;;12.48;62.06;101358.59;5030456;28;45381;-85
2022/01/02 07:05:31;;;;;;;;;0.00;0.00;;;;;11.68;62.09;101229.81;5040519;28;45401;-85
2022/01/02 07:07:57;;;;;;;;;1.00;1.00;;;;;12.46;62.05;101368.19;5040818;28;44757;-86
2022/01/02 07:10:22;;;;;;;;;1.50;0.00;;;;;12.45;62.52;101371.63;5033474;28;46643;-82
2022/01/02 07:12:48;;;;;;;;;0.00;0.00;;;;;12.41;62.49;101375.97;5040235;28;45347;-86
2022/01/02 07:15:13;;;;;;;;;1.50;0.00;;;;;11.51;62.49;101196.59;5044508;28;45391;-87
2022/01/02 07:17:39;;;;;;;;;0.75;0.00;;;;;11.68;62.51;101210.69;5052942;28;44810;-85
2022/01/02 07:20:06;;;;;;;;;0.00;0.00;;;;;11.61;62.37;101192.34;5032925;28;45396;-87
2022/01/02 07:22:31;;;;;;;;;0.00;0.00;;;;;12.11;62.43;101281.66;5044030;28;47130;-85
2022/01/02 07:24:56;;;;;;;;;0.00;0.00;;;;;12.20;62.58;101301.75;5028439;28;45414;-85
2022/01/02 07:27:22;;;;;;;;;0.00;0.00;;;;;12.52;62.93;101368.22;5032830;28;45454;-81
2022/01/02 07:29:48;;;;;;;;;0.00;0.00;;;;;12.52;62.63;101357.78;5030288;28;45414;-85
2022/01/02 07:32:14;;;;;;;;;0.00;0.00;;;;;11.88;62.88;101243.09;5038300;28;48012;-84
2022/01/02 07:34:40;;;;;;;;;0.00;0.00;;;;;12.49;63.11;101347.28;5029992;28;45376;-83
2022/01/02 07:37:05;;;;;;;;;0.00;0.00;;;;;12.53;63.25;101354.31;5034883;28;45788;-85
2022/01/02 07:39:31;;;;;;;;;0.00;0.00;;;;;11.88;62.96;101247.41;5027089;28;45472;-83
2022/01/02 07:41:56;;;;;;;;;0.00;0.00;;;;;12.41;63.38;101331.56;5027102;28;45474;-86
2022/01/02 07:44:21;;;;;;;;;0.00;0.00;;;;;12.40;63.09;101341.13;5041799;28;45461;-84
2022/01/02 07:46:47;;;;;;;;;0.25;0.00;;;;;12.05;63.14;101268.50;5041184;28;45554;-84
2022/01/02 07:49:12;;;;;;;;;0.00;0.00;;;;;11.93;63.24;101261.41;5039289;28;45488;-86
2022/01/02 07:51:37;;;;;;;;;0.00;0.00;;;;;12.50;63.33;101362.13;5043125;28;46716;-84
2022/01/02 07:54:03;;;;;;;;;0.00;0.00;;;;;12.09;63.66;101299.03;5036451;28;45406;-84
2022/01/02 07:56:29;;;;;;;;;1.50;0.25;;;;;12.46;63.47;101376.00;5045152;28;45515;-84
2022/01/02 07:58:55;;;;;;;;;0.00;0.00;;;;;12.23;63.62;101337.47;5042956;28;45475;-84
2022/01/02 08:01:21;;;;;;;;;0.00;0.00;;;;;12.54;63.95;101397.84;5038246;28;47019;-84
2022/01/02 08:03:46;;;;;;;;;0.00;0.00;;;;;12.47;64.04;101385.59;5029441;28;45423;-85
2022/01/02 08:06:12;;;;;;;;;0.50;0.50;;;;;12.30;63.83;101370.59;5049254;28;45415;-83
2022/01/02 08:08:37;;;;;;;;;0.00;0.00;;;;;12.13;64.34;101352.16;5031089;28;45899;-85
2022/01/02 08:11:03;;;;;;;;;0.00;0.00;;;;;12.50;64.31;101423.03;5030964;28;47351;-84
2022/01/02 08:13:28;;;;;;;;;0.00;0.00;;;;;12.29;64.26;101389.75;5032275;28;45541;-84
2022/01/02 08:15:53;;;;;;;;;1.00;0.00;;;;;12.11;64.50;101383.44;5028692;28;45662;-87
2022/01/02 08:18:20;;;;;;;;;0.00;0.00;;;;;11.66;64.28;101295.00;5035765;28;44846;-87
2022/01/02 08:20:46;;;;;;;;;0.00;0.00;;;;;12.50;64.74;101437.84;5036943;28;47429;-88
2022/01/02 08:23:15;;;;;;;;;0.00;0.00;;;;;11.87;64.71;101324.81;5031186;28;45474;-88
2022/01/02 08:25:40;;;;;;;;;0.00;0.00;;;;;12.08;65.04;101374.69;5051528;28;45553;-87
2022/01/02 08:28:06;;;;;;;;;0.00;0.00;;;;;12.52;64.97;101437.00;5045018;28;45300;-88
2022/01/02 08:30:32;;;;;;;;;0.00;0.00;;;;;11.74;64.83;101308.16;5030605;28;45391;-84
2022/01/02 08:32:57;;;;;;;;;0.00;0.00;;;;;12.38;64.83;101408.09;5050533;28;45363;-83
2022/01/02 08:35:23;;;;;;;;;0.00;0.00;;;;;12.27;64.95;101386.22;5038798;28;45700;-88
2022/01/02 08:37:48;;;;;;;;;0.00;0.00;;;;;11.94;64.83;101327.53;5035578;28;45608;-87
2022/01/02 08:40:14;;;;;;;;;0.00;0.00;;;;;12.53;65.31;101422.22;5034072;28;48191;-87
2022/01/02 08:42:39;;;;;;;;;0.00;0.00;;;;;12.51;64.91;101408.25;5032552;28;45414;-87
2022/01/02 08:45:05;;;;;;;;;0.00;0.00;;;;;12.60;64.92;101425.75;5036461;28;45493;-87
2022/01/02 08:47:36;;;;;;;;;0.00;0.00;;;;;12.61;65.34;101435.34;5035590;28;45518;-90
2022/01/02 08:50:04;;;;;;;;;0.00;0.00;;;;;12.04;65.29;101338.06;5040200;28;46539;-85
2022/01/02 08:52:29;;;;;;;;;0.00;0.00;;;;;12.74;65.38;101452.91;5042393;28;45538;-85
2022/01/02 08:55:21;;;;;;;;;0.00;0.00;;;;;12.75;65.64;101448.56;5025829;28;45541;-89
2022/01/02 08:57:46;;;;;;;;;7.50;0.00;;;;;12.08;65.34;101339.03;5031296;28;45284;-89
2022/01/02 09:00:13;;;;;;;;;1.75;0.00;;;;;12.43;65.90;101397.72;5033854;28;46278;-87
2022/01/02 09:02:38;;;;;;;;;1.75;0.00;;;;;12.41;65.56;101402.06;5034707;28;45721;-86
2022/01/02 09:05:04;;;;;;;;;0.25;0.25;;;;;11.93;65.64;101318.81;5041404;28;45422;-90
2022/01/02 09:07:30;;;;;;;;;0.00;0.00;;;;;12.78;66.10;101453.84;5033202;28;45530;-86
2022/01/02 09:09:55;;;;;;;;;0.25;0.00;;;;;12.61;66.17;101436.22;5041719;28;47222;-81
2022/01/02 09:12:21;;;;;;;;;0.75;0.00;;;;;12.50;66.16;101412.59;5044844;28;45344;-88
2022/01/02 09:14:46;;;;;;;;;1.00;0.00;;;;;12.33;66.13;101373.25;5044102;28;45399;-89
2022/01/02 09:17:11;;;;;;;;;0.00;0.00;;;;;12.39;66.19;101390.72;5029606;28;45515;-85
2022/01/02 09:19:37;;;;;;;;;0.75;0.00;;;;;12.12;66.15;101343.44;5038873;28;47060;-84
2022/01/02 09:22:03;;;;;;;;;1.50;0.00;;;;;12.97;65.78;101480.16;5039877;28;45482;-84
2022/01/02 09:24:29;;;;;;;;;0.75;0.75;;;;;12.46;66.25;101395.16;5024369;28;45397;-87
2022/01/02 09:26:55;;;;;;;;;2.00;2.00;;;;;12.91;66.29;101479.25;5025242;28;45509;-84
2022/01/02 09:29:21;;;;;;;;;0.00;0.00;;;;;12.52;66.09;101416.13;5051766;28;47216;-84
2022/01/02 09:31:47;;;;;;;;;0.50;0.00;;;;;13.05;66.32;101488.97;5036525;28;45894;-86
2022/01/02 09:34:13;;;;;;;;;0.00;0.00;;;;;13.03;66.09;101491.56;5037962;28;46024;-83
2022/01/02 09:36:38;;;;;;;;;0.25;0.00;;;;;12.53;65.90;101417.84;5039122;28;45803;-88
2022/01/02 09:39:05;;;;;;;;;0.00;0.00;;;;;12.93;66.21;101459.22;5041965;28;46918;-88
2022/01/02 09:41:31;;;;;;;;;0.00;0.00;;;;;12.66;65.88;101411.06;5036868;28;45429;-86
2022/01/02 09:43:56;;;;;;;;;0.25;0.25;;;;;13.13;66.12;101479.47;5038790;28;45712;-88
2022/01/02 09:46:25;;;;;;;;;0.00;0.00;;;;;12.66;66.24;101403.22;5043936;28;45558;-89
2022/01/02 09:48:52;;;;;;;;;0.00;0.00;;;;;12.91;65.96;101441.78;5046246;28;47150;-88
2022/01/02 09:51:19;;;;;;;;;0.00;0.00;;;;;13.00;65.87;101422.69;5037420;28;45730;-87
2022/01/02 09:53:46;;;;;;;;;0.00;0.00;;;;;12.87;65.63;101396.47;5033393;28;45519;-87
2022/01/02 09:56:13;;;;;;;;;0.00;0.00;;;;;12.70;65.45;101337.91;5034732;28;45404;-84
2022/01/02 09:58:42;;;;;;;;;0.00;0.00;;;;;13.25;65.47;101423.78;5031673;28;46114;-89
2022/01/02 10:01:14;;;;;;;;;1.00;0.00;;;;;13.47;64.98;101457.09;5044403;28;45514;-84
2022/01/02 10:03:50;;;;;;;;;0.00;0.00;;;;;12.97;64.93;101359.94;5048526;28;45407;-86
2022/01/02 10:06:16;;;;;;;;;0.50;0.00;;;;;12.94;64.92;101347.72;5048316;28;45198;-89
2022/01/02 10:08:43;;;;;;;;;0.00;0.00;;;;;13.97;64.52;101496.75;5035017;28;46361;-87
2022/01/02 10:11:22;;;;;;;;;0.00;0.00;;;;;14.05;64.36;101505.50;5038025;28;45957;-88
2022/01/02 10:13:57;;;;;;;;;1.00;0.00;;;;;14.08;64.10;101497.66;5039304;28;45358;-87
2022/01/02 10:16:33;;;;;;;;;0.00;0.00;;;;;13.55;63.76;101403.13;5031563;28;47022;-86
2022/01/02 10:19:15;;;;;;;;;0.00;0.00;;;;;13.99;64.01;101474.03;5029013;28;45677;-85
2022/01/02 10:21:41;;;;;;;;;0.00;0.00;;;;;14.23;63.61;101490.78;5030527;28;45762;-87
2022/01/02 10:24:21;;;;;;;;;0.00;0.00;;;;;14.15;63.76;101465.41;5029816;28;45447;-92
2022/01/02 10:27:21;;;;;;;;;0.00;0.00;;;;;14.12;63.47;101439.22;5042963;28;44791;-91
2022/01/02 10:29:58;;;;;;;;;0.00;0.00;;;;;13.67;63.37;101368.31;5009658;28;46401;-88
2022/01/02 10:32:37;;;;;;;;;0.00;0.00;;;;;14.49;63.41;101503.13;5047379;28;45527;-91
2022/01/02 10:35:21;;;;;;;;;0.00;0.00;;;;;14.47;63.27;101494.38;5031527;28;45363;-84
2022/01/02 10:37:52;;;;;;;;;2.25;0.00;;;;;14.43;63.09;101494.38;5022168;28;45744;-86
2022/01/02 10:40:38;;;;;;;;;0.50;0.00;;;;;14.32;63.08;101504.81;5027336;28;45447;-86
2022/01/02 10:43:06;;;;;;;;;0.00;0.00;;;;;14.27;63.58;101498.66;5027814;28;45431;-87
2022/01/02 10:45:47;;;;;;;;;0.50;0.50;;;;;13.57;63.26;101393.56;5029246;28;45665;-87
2022/01/02 10:48:18;;;;;;;;;1.00;0.00;;;;;14.14;63.61;101489.88;5039267;28;45581;-87
2022/01/02 10:51:06;;;;;;;;;0.00;0.00;;;;;14.13;63.84;101488.13;5039973;28;45993;-88
2022/01/02 10:53:34;;;;;;;;;0.00;0.00;;;;;13.90;63.84;101461.78;5038854;28;45447;-83
2022/01/02 10:56:01;;;;;;;;;0.00;0.00;;;;;13.59;64.09;101420.59;5045924;28;45398;-85
2022/01/02 10:58:27;;;;;;;;;0.00;0.00;;;;;14.11;63.98;101495.06;5042584;28;45365;-85
2022/01/02 11:00:55;;;;;;;;;0.00;0.00;;;;;13.93;63.99;101472.28;5044255;28;47486;-84
2022/01/02 11:03:24;;;;;;;;;0.00;0.00;;;;;13.84;63.99;101440.81;5035307;28;45535;-85
2022/01/02 11:05:56;;;;;;;;;0.00;0.00;;;;;13.71;63.86;101418.91;5042809;28;45458;-88
2022/01/02 11:08:24;;;;;;;;;0.00;0.00;;;;;13.71;63.98;101421.53;5047143;28;45618;-86
2022/01/02 11:10:50;;;;;;;;;0.00;0.00;;;;;13.72;64.05;101434.63;5053340;28;47127;-81
2022/01/02 11:13:18;;;;;;;;;1.00;0.00;;;;;13.75;64.00;101441.66;5033918;28;45498;-86
2022/01/02 11:15:43;;;;;;;;;0.00;0.00;;;;;13.59;63.75;101415.34;5033130;28;45507;-84
2022/01/02 11:18:09;;;;;;;;;0.00;0.00;;;;;13.76;63.91;101441.66;5033687;28;45880;-81
2022/01/02 11:20:34;;;;;;;;;0.00;0.00;;;;;13.69;63.90;101429.38;5034000;28;45713;-82
2022/01/02 11:23:23;;;;;;;;;0.00;0.00;;;;;13.92;64.23;101460.94;5029227;28;45546;-77
2022/01/02 11:25:52;;;;;;;;;0.00;0.00;;;;;14.14;64.06;101491.59;5051556;28;45295;-80
2022/01/02 11:28:39;;;;;;;;;0.00;0.00;;;;;14.13;64.32;101488.13;5052941;28;45461;-81
2022/01/02 11:31:08;;;;;;;;;0.00;0.00;;;;;13.53;64.12;101378.69;5038369;28;46627;-78
2022/01/02 11:33:41;;;;;;;;;0.00;0.00;;;;;14.15;64.14;101480.28;5039393;28;45403;-83